Detall de PIREP

Printer-friendly versionPDF version

[2012/12/03 10:07:00]
Flight IATA:CT1005
Pilot Number:042
Company ICAO:CAT
Aircraft Type:B738/F
PAX:120
Departing Airport: EDDF
Destination Airport: LOWW
Alternate Airport:LZIB
Online: VATSIM
Route:NOMBO Y161 RIDAR UZ98 MIQ UL605 BIBAG Q104 FRE Q105 VENEN
Flight Level:F350
No Slew and time accel
No pause
Crash detect
Detect pilot in Cockpit between each 30 and 45 minutes
10:07 Zero fuel Weight: 115601 Lbs, Fuel Weight: 46051 Lbs
10:07 VATSIM:EDDF 030920Z 20012KT 9999 FEW015 BKN200 01/M02 Q1017 NOSIG
10:07 VATSIM:LOWW 030920Z 31017KT 9999 FEW025 SCT050 03/M02 Q1012 NOSIG
10:07 VOICE CATALONIAN/EU TOUR
10:15 Parking Brakes off
10:19 Take-off
10:19 Take off Weight: 160866 Lbs
10:19 Wind: 201º @ 008 Knots Heading: 247º
10:19 POS N50º 01´ 47´´ E008º 32´ 37´´
10:19 Gear Up: 184 Knots
10:19 Flaps:4 at 184 Knots
10:19 Flaps:3 at 189 Knots
10:20 Flaps:2 at 179 Knots
10:20 Flaps:1 at 187 Knots
10:21 Flaps:0 at 208 Knots
10:34 Wind:333º@083 Knots Heading: 134º Ground Speed: 519 Knots Altitude 27240 ft
10:41 TOC
10:41 Fuel Weight: 40668 Lb
10:49 Wind:344º@079 Knots Heading: 077º Ground Speed: 452 Knots Altitude 35095 ft
10:56 TOD
10:56 Fuel Weight: 39192 Lb
11:04 Wind:343º@039 Knots Heading: 089º Ground Speed: 396 Knots Altitude 17080 ft
11:12 Flaps:1 at 218 Knots
11:12 Flaps:2 at 187 Knots
11:13 Flaps:3 at 173 Knots
11:14 Flaps:4 at 169 Knots
11:15 Flaps:5 at 167 Knots
11:16 Flaps:6 at 159 Knots
11:16 Flaps:7 at 159 Knots
11:16 Gear Down: 153 Knots
11:16 Flaps:8 at 146 Knots
11:19 Wind:318º@021 Knots Heading: 340º Ground Speed: 127 Knots Altitude 1358 ft
11:20 TouchDown:Rate -297 ft/min Speed: 134 Knots
11:20 VATSIM:LOWW 031050Z 32020KT 9999 SCT035 BKN055 04/M04 Q1012 NOSIG
11:20 Land
11:20 Wind:318º@022 Knots
11:20 Heading: 345º
11:20 Flight Duration: 01:01
11:20 Landing Weight: 153472 Lbs
11:20 POS N48º 06´ 04´´ E016º 35´ 10´´
11:23 Parking brakes on
11:23 Block to Block Duration: 01:08
11:23 Final Fuel: 37575 Lbls
11:23 Spent Fuel: 8476 Lbls
11:23 Flight Length: 391 NM
11:23 TOD Land Length: 121 NM

Exportar CSV

Powered by Drupal - Modified by Danger4k